sensor_id;sensor_type;location;lat;lon;timestamp;P1;durP1;ratioP1;P2;durP2;ratioP2
5912;SDS011;2982;42.684;23.356;2023-07-31T00:00:56;2.30;;;2.20;;
5912;SDS011;2982;42.684;23.356;2023-07-31T00:03:21;2.75;;;2.55;;
5912;SDS011;2982;42.684;23.356;2023-07-31T00:05:47;2.40;;;2.30;;
5912;SDS011;2982;42.684;23.356;2023-07-31T00:08:12;2.55;;;2.45;;
5912;SDS011;2982;42.684;23.356;2023-07-31T00:10:37;3.15;;;2.42;;
5912;SDS011;2982;42.684;23.356;2023-07-31T00:13:02;2.40;;;2.30;;
5912;SDS011;2982;42.684;23.356;2023-07-31T00:15:28;3.35;;;2.55;;
5912;SDS011;2982;42.684;23.356;2023-07-31T00:17:53;2.45;;;2.25;;
5912;SDS011;2982;42.684;23.356;2023-07-31T00:20:18;2.83;;;2.63;;
5912;SDS011;2982;42.684;23.356;2023-07-31T00:22:44;2.97;;;2.78;;
5912;SDS011;2982;42.684;23.356;2023-07-31T00:25:09;2.47;;;2.38;;
5912;SDS011;2982;42.684;23.356;2023-07-31T00:27:34;2.97;;;2.38;;
5912;SDS011;2982;42.684;23.356;2023-07-31T00:29:59;3.15;;;2.95;;
5912;SDS011;2982;42.684;23.356;2023-07-31T00:32:25;2.85;;;2.65;;
5912;SDS011;2982;42.684;23.356;2023-07-31T00:34:50;2.72;;;2.53;;
5912;SDS011;2982;42.684;23.356;2023-07-31T00:37:15;3.30;;;3.10;;
5912;SDS011;2982;42.684;23.356;2023-07-31T00:39:41;2.88;;;2.78;;
5912;SDS011;2982;42.684;23.356;2023-07-31T00:42:06;3.25;;;3.05;;
5912;SDS011;2982;42.684;23.356;2023-07-31T00:44:32;3.63;;;3.13;;
5912;SDS011;2982;42.684;23.356;2023-07-31T00:46:58;3.53;;;3.30;;
5912;SDS011;2982;42.684;23.356;2023-07-31T00:49:23;3.55;;;3.25;;
5912;SDS011;2982;42.684;23.356;2023-07-31T00:51:48;3.55;;;3.35;;
5912;SDS011;2982;42.684;23.356;2023-07-31T00:54:14;3.95;;;3.75;;
5912;SDS011;2982;42.684;23.356;2023-07-31T00:56:39;4.70;;;4.40;;
5912;SDS011;2982;42.684;23.356;2023-07-31T00:59:06;4.18;;;3.95;;
5912;SDS011;2982;42.684;23.356;2023-07-31T01:01:31;5.70;;;5.20;;
5912;SDS011;2982;42.684;23.356;2023-07-31T01:03:57;6.22;;;5.93;;
5912;SDS011;2982;42.684;23.356;2023-07-31T01:06:26;6.28;;;5.88;;
5912;SDS011;2982;42.684;23.356;2023-07-31T01:09:34;6.88;;;6.47;;
5912;SDS011;2982;42.684;23.356;2023-07-31T01:12:05;8.65;;;8.05;;
5912;SDS011;2982;42.684;23.356;2023-07-31T01:14:32;9.10;;;8.40;;
5912;SDS011;2982;42.684;23.356;2023-07-31T01:16:57;7.70;;;7.30;;
5912;SDS011;2982;42.684;23.356;2023-07-31T01:19:23;8.25;;;7.75;;
5912;SDS011;2982;42.684;23.356;2023-07-31T01:21:58;9.65;;;8.88;;
5912;SDS011;2982;42.684;23.356;2023-07-31T01:27:28;11.25;;;10.27;;
5912;SDS011;2982;42.684;23.356;2023-07-31T01:32:55;11.57;;;10.48;;
5912;SDS011;2982;42.684;23.356;2023-07-31T01:35:22;13.25;;;12.07;;
5912;SDS011;2982;42.684;23.356;2023-07-31T01:37:47;12.98;;;11.77;;
5912;SDS011;2982;42.684;23.356;2023-07-31T01:40:12;12.60;;;11.43;;
5912;SDS011;2982;42.684;23.356;2023-07-31T01:42:38;12.68;;;11.65;;
5912;SDS011;2982;42.684;23.356;2023-07-31T01:45:03;14.18;;;12.98;;
5912;SDS011;2982;42.684;23.356;2023-07-31T01:47:29;16.02;;;13.32;;
5912;SDS011;2982;42.684;23.356;2023-07-31T01:49:54;15.75;;;14.52;;
5912;SDS011;2982;42.684;23.356;2023-07-31T01:52:19;16.20;;;14.80;;
5912;SDS011;2982;42.684;23.356;2023-07-31T01:54:44;16.92;;;15.52;;
5912;SDS011;2982;42.684;23.356;2023-07-31T01:57:10;15.68;;;14.48;;
5912;SDS011;2982;42.684;23.356;2023-07-31T01:59:35;18.60;;;17.02;;
5912;SDS011;2982;42.684;23.356;2023-07-31T02:02:00;18.30;;;16.70;;
5912;SDS011;2982;42.684;23.356;2023-07-31T02:04:25;19.35;;;17.52;;
5912;SDS011;2982;42.684;23.356;2023-07-31T02:06:52;20.70;;;18.88;;
5912;SDS011;2982;42.684;23.356;2023-07-31T02:09:18;19.55;;;17.80;;
5912;SDS011;2982;42.684;23.356;2023-07-31T02:11:43;21.23;;;18.25;;
5912;SDS011;2982;42.684;23.356;2023-07-31T02:14:08;20.48;;;18.63;;
5912;SDS011;2982;42.684;23.356;2023-07-31T02:16:33;22.27;;;19.95;;
5912;SDS011;2982;42.684;23.356;2023-07-31T02:18:59;21.17;;;19.27;;
5912;SDS011;2982;42.684;23.356;2023-07-31T02:21:24;20.95;;;19.02;;
5912;SDS011;2982;42.684;23.356;2023-07-31T02:23:49;21.48;;;19.48;;
5912;SDS011;2982;42.684;23.356;2023-07-31T02:26:14;22.00;;;19.90;;
5912;SDS011;2982;42.684;23.356;2023-07-31T02:28:40;22.30;;;20.20;;
5912;SDS011;2982;42.684;23.356;2023-07-31T02:31:05;21.48;;;19.58;;
5912;SDS011;2982;42.684;23.356;2023-07-31T02:33:30;22.05;;;19.95;;
5912;SDS011;2982;42.684;23.356;2023-07-31T02:35:55;22.45;;;20.35;;
5912;SDS011;2982;42.684;23.356;2023-07-31T02:38:21;22.83;;;20.67;;
5912;SDS011;2982;42.684;23.356;2023-07-31T02:40:46;23.17;;;20.77;;
5912;SDS011;2982;42.684;23.356;2023-07-31T02:43:12;23.25;;;20.95;;
5912;SDS011;2982;42.684;23.356;2023-07-31T02:45:37;21.85;;;19.85;;
5912;SDS011;2982;42.684;23.356;2023-07-31T02:48:02;22.88;;;20.77;;
5912;SDS011;2982;42.684;23.356;2023-07-31T02:50:28;21.85;;;19.73;;
5912;SDS011;2982;42.684;23.356;2023-07-31T02:52:53;24.90;;;19.85;;
5912;SDS011;2982;42.684;23.356;2023-07-31T02:55:18;22.77;;;20.70;;
5912;SDS011;2982;42.684;23.356;2023-07-31T02:57:43;22.55;;;20.33;;
5912;SDS011;2982;42.684;23.356;2023-07-31T03:00:09;22.75;;;20.25;;
5912;SDS011;2982;42.684;23.356;2023-07-31T03:02:34;22.67;;;20.58;;
5912;SDS011;2982;42.684;23.356;2023-07-31T03:05:00;23.45;;;21.25;;
5912;SDS011;2982;42.684;23.356;2023-07-31T03:07:25;21.20;;;19.15;;
5912;SDS011;2982;42.684;23.356;2023-07-31T03:09:50;22.40;;;20.15;;
5912;SDS011;2982;42.684;23.356;2023-07-31T03:12:15;18.98;;;17.08;;
5912;SDS011;2982;42.684;23.356;2023-07-31T03:14:41;21.42;;;19.50;;
5912;SDS011;2982;42.684;23.356;2023-07-31T03:17:06;21.60;;;19.58;;
5912;SDS011;2982;42.684;23.356;2023-07-31T03:19:32;20.45;;;18.60;;
5912;SDS011;2982;42.684;23.356;2023-07-31T03:21:58;22.20;;;20.05;;
5912;SDS011;2982;42.684;23.356;2023-07-31T03:24:24;21.35;;;19.45;;
5912;SDS011;2982;42.684;23.356;2023-07-31T03:26:50;21.70;;;19.60;;
5912;SDS011;2982;42.684;23.356;2023-07-31T03:29:15;21.70;;;19.65;;
5912;SDS011;2982;42.684;23.356;2023-07-31T03:31:40;20.98;;;19.20;;
5912;SDS011;2982;42.684;23.356;2023-07-31T03:34:06;21.17;;;19.27;;
5912;SDS011;2982;42.684;23.356;2023-07-31T03:36:31;21.00;;;19.05;;
5912;SDS011;2982;42.684;23.356;2023-07-31T03:38:56;22.90;;;20.95;;
5912;SDS011;2982;42.684;23.356;2023-07-31T03:41:22;22.40;;;20.17;;
5912;SDS011;2982;42.684;23.356;2023-07-31T03:43:49;21.67;;;19.55;;
5912;SDS011;2982;42.684;23.356;2023-07-31T03:46:15;22.30;;;20.17;;
5912;SDS011;2982;42.684;23.356;2023-07-31T03:48:40;21.52;;;19.63;;
5912;SDS011;2982;42.684;23.356;2023-07-31T03:51:05;22.92;;;20.73;;
5912;SDS011;2982;42.684;23.356;2023-07-31T03:53:31;22.80;;;20.70;;
5912;SDS011;2982;42.684;23.356;2023-07-31T03:55:56;23.20;;;21.00;;
5912;SDS011;2982;42.684;23.356;2023-07-31T03:58:21;21.63;;;19.48;;
5912;SDS011;2982;42.684;23.356;2023-07-31T04:00:47;23.77;;;21.20;;
5912;SDS011;2982;42.684;23.356;2023-07-31T04:03:12;20.75;;;18.60;;
5912;SDS011;2982;42.684;23.356;2023-07-31T04:05:38;23.05;;;20.75;;
5912;SDS011;2982;42.684;23.356;2023-07-31T04:08:03;24.13;;;21.25;;
5912;SDS011;2982;42.684;23.356;2023-07-31T04:10:28;23.02;;;20.77;;
5912;SDS011;2982;42.684;23.356;2023-07-31T04:12:54;23.13;;;20.95;;
5912;SDS011;2982;42.684;23.356;2023-07-31T04:15:19;22.95;;;20.58;;
5912;SDS011;2982;42.684;23.356;2023-07-31T04:17:44;22.20;;;20.05;;
5912;SDS011;2982;42.684;23.356;2023-07-31T04:20:10;24.60;;;22.08;;
5912;SDS011;2982;42.684;23.356;2023-07-31T04:22:35;22.33;;;20.15;;
5912;SDS011;2982;42.684;23.356;2023-07-31T04:25:00;24.50;;;22.02;;
5912;SDS011;2982;42.684;23.356;2023-07-31T04:27:26;22.95;;;20.65;;
5912;SDS011;2982;42.684;23.356;2023-07-31T04:29:51;21.02;;;18.10;;
5912;SDS011;2982;42.684;23.356;2023-07-31T04:32:16;23.50;;;20.90;;
5912;SDS011;2982;42.684;23.356;2023-07-31T04:34:42;25.13;;;21.88;;
5912;SDS011;2982;42.684;23.356;2023-07-31T04:37:07;23.38;;;21.05;;
5912;SDS011;2982;42.684;23.356;2023-07-31T04:39:33;23.58;;;21.38;;
5912;SDS011;2982;42.684;23.356;2023-07-31T04:41:58;22.50;;;20.17;;
5912;SDS011;2982;42.684;23.356;2023-07-31T04:44:23;21.88;;;19.77;;
5912;SDS011;2982;42.684;23.356;2023-07-31T04:46:48;23.25;;;19.98;;
5912;SDS011;2982;42.684;23.356;2023-07-31T04:49:14;20.15;;;18.45;;
5912;SDS011;2982;42.684;23.356;2023-07-31T04:51:39;22.75;;;20.65;;
5912;SDS011;2982;42.684;23.356;2023-07-31T04:54:04;24.60;;;22.15;;
5912;SDS011;2982;42.684;23.356;2023-07-31T04:56:29;24.65;;;20.48;;
5912;SDS011;2982;42.684;23.356;2023-07-31T04:58:55;28.75;;;21.45;;
5912;SDS011;2982;42.684;23.356;2023-07-31T05:01:20;21.60;;;19.50;;
5912;SDS011;2982;42.684;23.356;2023-07-31T05:03:45;20.63;;;18.60;;
5912;SDS011;2982;42.684;23.356;2023-07-31T05:06:11;18.85;;;17.08;;
5912;SDS011;2982;42.684;23.356;2023-07-31T05:08:36;19.52;;;17.67;;
5912;SDS011;2982;42.684;23.356;2023-07-31T05:11:01;18.83;;;17.13;;
5912;SDS011;2982;42.684;23.356;2023-07-31T05:13:27;19.40;;;17.70;;
5912;SDS011;2982;42.684;23.356;2023-07-31T05:15:52;17.75;;;16.05;;
5912;SDS011;2982;42.684;23.356;2023-07-31T05:18:17;17.60;;;16.10;;
5912;SDS011;2982;42.684;23.356;2023-07-31T05:20:43;17.33;;;15.93;;
5912;SDS011;2982;42.684;23.356;2023-07-31T05:23:08;15.05;;;13.95;;
5912;SDS011;2982;42.684;23.356;2023-07-31T05:25:33;14.93;;;13.93;;
5912;SDS011;2982;42.684;23.356;2023-07-31T05:27:58;14.93;;;13.93;;
5912;SDS011;2982;42.684;23.356;2023-07-31T05:30:24;14.02;;;13.02;;
5912;SDS011;2982;42.684;23.356;2023-07-31T05:32:49;14.38;;;13.27;;
5912;SDS011;2982;42.684;23.356;2023-07-31T05:35:14;13.32;;;12.30;;
5912;SDS011;2982;42.684;23.356;2023-07-31T05:37:40;12.35;;;11.25;;
5912;SDS011;2982;42.684;23.356;2023-07-31T05:40:05;10.73;;;10.00;;
5912;SDS011;2982;42.684;23.356;2023-07-31T05:42:31;13.13;;;12.02;;
5912;SDS011;2982;42.684;23.356;2023-07-31T05:44:56;11.48;;;10.52;;
5912;SDS011;2982;42.684;23.356;2023-07-31T05:47:21;11.60;;;10.80;;
5912;SDS011;2982;42.684;23.356;2023-07-31T05:49:47;11.18;;;10.18;;
5912;SDS011;2982;42.684;23.356;2023-07-31T05:52:13;12.30;;;11.32;;
5912;SDS011;2982;42.684;23.356;2023-07-31T05:54:39;10.13;;;9.43;;
5912;SDS011;2982;42.684;23.356;2023-07-31T05:57:04;9.95;;;9.20;;
5912;SDS011;2982;42.684;23.356;2023-07-31T05:59:29;9.65;;;9.05;;
5912;SDS011;2982;42.684;23.356;2023-07-31T06:01:55;10.88;;;9.70;;
5912;SDS011;2982;42.684;23.356;2023-07-31T06:04:20;8.38;;;7.80;;
5912;SDS011;2982;42.684;23.356;2023-07-31T06:06:45;8.55;;;7.85;;
5912;SDS011;2982;42.684;23.356;2023-07-31T06:09:10;8.38;;;7.88;;
5912;SDS011;2982;42.684;23.356;2023-07-31T06:11:36;7.85;;;7.25;;
5912;SDS011;2982;42.684;23.356;2023-07-31T06:14:01;7.85;;;7.38;;
5912;SDS011;2982;42.684;23.356;2023-07-31T06:16:26;7.15;;;6.47;;
5912;SDS011;2982;42.684;23.356;2023-07-31T06:18:52;6.80;;;6.30;;
5912;SDS011;2982;42.684;23.356;2023-07-31T06:21:17;6.82;;;6.30;;
5912;SDS011;2982;42.684;23.356;2023-07-31T06:23:42;5.95;;;5.55;;
5912;SDS011;2982;42.684;23.356;2023-07-31T06:26:07;4.40;;;4.20;;
5912;SDS011;2982;42.684;23.356;2023-07-31T06:28:33;4.72;;;4.40;;
5912;SDS011;2982;42.684;23.356;2023-07-31T06:30:58;4.82;;;4.28;;
5912;SDS011;2982;42.684;23.356;2023-07-31T06:33:23;4.40;;;4.10;;
5912;SDS011;2982;42.684;23.356;2023-07-31T06:35:49;4.88;;;4.57;;
5912;SDS011;2982;42.684;23.356;2023-07-31T06:38:14;5.95;;;4.78;;
5912;SDS011;2982;42.684;23.356;2023-07-31T06:40:39;4.53;;;4.18;;
5912;SDS011;2982;42.684;23.356;2023-07-31T06:43:05;4.18;;;3.88;;
5912;SDS011;2982;42.684;23.356;2023-07-31T06:45:31;4.45;;;4.13;;
5912;SDS011;2982;42.684;23.356;2023-07-31T06:47:56;4.20;;;3.83;;
5912;SDS011;2982;42.684;23.356;2023-07-31T06:50:21;4.45;;;4.05;;
5912;SDS011;2982;42.684;23.356;2023-07-31T06:52:46;4.53;;;4.22;;
5912;SDS011;2982;42.684;23.356;2023-07-31T06:55:18;4.70;;;4.43;;
5912;SDS011;2982;42.684;23.356;2023-07-31T06:57:45;4.25;;;3.95;;
5912;SDS011;2982;42.684;23.356;2023-07-31T07:00:12;4.30;;;3.85;;
5912;SDS011;2982;42.684;23.356;2023-07-31T07:02:37;3.25;;;3.05;;
5912;SDS011;2982;42.684;23.356;2023-07-31T07:05:03;5.32;;;3.40;;
5912;SDS011;2982;42.684;23.356;2023-07-31T07:07:28;4.07;;;3.85;;
5912;SDS011;2982;42.684;23.356;2023-07-31T07:09:53;4.03;;;3.55;;
5912;SDS011;2982;42.684;23.356;2023-07-31T07:12:19;3.63;;;3.42;;
5912;SDS011;2982;42.684;23.356;2023-07-31T07:14:44;5.22;;;3.60;;
5912;SDS011;2982;42.684;23.356;2023-07-31T07:17:09;5.15;;;3.55;;
5912;SDS011;2982;42.684;23.356;2023-07-31T07:19:34;3.95;;;3.65;;
5912;SDS011;2982;42.684;23.356;2023-07-31T07:22:00;3.45;;;3.22;;
5912;SDS011;2982;42.684;23.356;2023-07-31T07:24:25;3.88;;;3.50;;
5912;SDS011;2982;42.684;23.356;2023-07-31T07:26:50;4.10;;;2.75;;
5912;SDS011;2982;42.684;23.356;2023-07-31T07:29:15;2.97;;;2.80;;
5912;SDS011;2982;42.684;23.356;2023-07-31T07:31:41;3.15;;;2.95;;
5912;SDS011;2982;42.684;23.356;2023-07-31T07:34:06;3.85;;;3.65;;
5912;SDS011;2982;42.684;23.356;2023-07-31T07:36:31;3.85;;;3.55;;
5912;SDS011;2982;42.684;23.356;2023-07-31T07:38:56;3.92;;;3.50;;
5912;SDS011;2982;42.684;23.356;2023-07-31T07:41:22;2.88;;;2.78;;
5912;SDS011;2982;42.684;23.356;2023-07-31T07:43:47;3.33;;;3.05;;
5912;SDS011;2982;42.684;23.356;2023-07-31T07:46:12;3.30;;;3.05;;
5912;SDS011;2982;42.684;23.356;2023-07-31T07:48:38;3.30;;;3.10;;
5912;SDS011;2982;42.684;23.356;2023-07-31T07:51:03;3.70;;;2.65;;
5912;SDS011;2982;42.684;23.356;2023-07-31T07:53:28;3.28;;;3.08;;
5912;SDS011;2982;42.684;23.356;2023-07-31T07:55:53;3.03;;;2.83;;
5912;SDS011;2982;42.684;23.356;2023-07-31T07:58:19;4.15;;;3.00;;
5912;SDS011;2982;42.684;23.356;2023-07-31T08:00:50;3.08;;;2.63;;
5912;SDS011;2982;42.684;23.356;2023-07-31T08:03:16;5.32;;;2.90;;
5912;SDS011;2982;42.684;23.356;2023-07-31T08:05:42;3.22;;;2.92;;
5912;SDS011;2982;42.684;23.356;2023-07-31T08:08:07;2.55;;;2.38;;
5912;SDS011;2982;42.684;23.356;2023-07-31T08:10:32;2.42;;;2.33;;
5912;SDS011;2982;42.684;23.356;2023-07-31T08:12:58;3.08;;;2.88;;
5912;SDS011;2982;42.684;23.356;2023-07-31T08:15:23;4.53;;;2.88;;
5912;SDS011;2982;42.684;23.356;2023-07-31T08:17:48;3.13;;;2.83;;
5912;SDS011;2982;42.684;23.356;2023-07-31T08:20:14;3.05;;;2.85;;
5912;SDS011;2982;42.684;23.356;2023-07-31T08:22:39;3.35;;;3.05;;
5912;SDS011;2982;42.684;23.356;2023-07-31T08:25:05;5.38;;;3.20;;
5912;SDS011;2982;42.684;23.356;2023-07-31T08:27:30;3.13;;;2.88;;
5912;SDS011;2982;42.684;23.356;2023-07-31T08:29:55;3.15;;;2.88;;
5912;SDS011;2982;42.684;23.356;2023-07-31T08:32:21;2.85;;;2.65;;
5912;SDS011;2982;42.684;23.356;2023-07-31T08:34:46;2.90;;;2.80;;
5912;SDS011;2982;42.684;23.356;2023-07-31T08:37:11;3.20;;;3.00;;
5912;SDS011;2982;42.684;23.356;2023-07-31T08:39:36;3.10;;;2.47;;
5912;SDS011;2982;42.684;23.356;2023-07-31T08:42:02;3.65;;;3.10;;
5912;SDS011;2982;42.684;23.356;2023-07-31T08:44:27;12.10;;;3.30;;
5912;SDS011;2982;42.684;23.356;2023-07-31T08:46:55;2.58;;;2.45;;
5912;SDS011;2982;42.684;23.356;2023-07-31T08:49:21;3.40;;;2.30;;
5912;SDS011;2982;42.684;23.356;2023-07-31T08:51:48;2.60;;;2.50;;
5912;SDS011;2982;42.684;23.356;2023-07-31T08:54:15;6.38;;;2.88;;
5912;SDS011;2982;42.684;23.356;2023-07-31T08:56:40;3.20;;;2.65;;
5912;SDS011;2982;42.684;23.356;2023-07-31T08:59:05;2.55;;;2.38;;
5912;SDS011;2982;42.684;23.356;2023-07-31T09:01:31;2.50;;;2.40;;
5912;SDS011;2982;42.684;23.356;2023-07-31T09:04:04;6.90;;;2.67;;
5912;SDS011;2982;42.684;23.356;2023-07-31T09:06:31;2.38;;;2.22;;
5912;SDS011;2982;42.684;23.356;2023-07-31T09:08:57;2.78;;;2.55;;
5912;SDS011;2982;42.684;23.356;2023-07-31T09:11:22;1.70;;;1.60;;
5912;SDS011;2982;42.684;23.356;2023-07-31T09:13:49;4.78;;;2.22;;
5912;SDS011;2982;42.684;23.356;2023-07-31T09:16:15;2.60;;;2.40;;
5912;SDS011;2982;42.684;23.356;2023-07-31T09:18:52;2.20;;;2.10;;
5912;SDS011;2982;42.684;23.356;2023-07-31T09:21:19;3.50;;;2.53;;
5912;SDS011;2982;42.684;23.356;2023-07-31T09:23:45;3.40;;;2.30;;
5912;SDS011;2982;42.684;23.356;2023-07-31T09:26:13;3.28;;;2.15;;
5912;SDS011;2982;42.684;23.356;2023-07-31T09:28:54;2.47;;;2.38;;
5912;SDS011;2982;42.684;23.356;2023-07-31T09:31:31;2.83;;;2.55;;
5912;SDS011;2982;42.684;23.356;2023-07-31T09:33:57;3.08;;;2.92;;
5912;SDS011;2982;42.684;23.356;2023-07-31T09:36:22;2.20;;;2.10;;
5912;SDS011;2982;42.684;23.356;2023-07-31T09:38:47;2.45;;;2.25;;
5912;SDS011;2982;42.684;23.356;2023-07-31T09:41:13;2.50;;;2.30;;
5912;SDS011;2982;42.684;23.356;2023-07-31T09:43:38;2.85;;;2.47;;
5912;SDS011;2982;42.684;23.356;2023-07-31T09:46:03;2.13;;;2.03;;
5912;SDS011;2982;42.684;23.356;2023-07-31T09:48:29;5.72;;;2.53;;
5912;SDS011;2982;42.684;23.356;2023-07-31T09:50:54;2.20;;;2.10;;
5912;SDS011;2982;42.684;23.356;2023-07-31T09:53:19;2.35;;;2.25;;
5912;SDS011;2982;42.684;23.356;2023-07-31T09:55:52;3.50;;;2.45;;
5912;SDS011;2982;42.684;23.356;2023-07-31T09:58:18;3.05;;;1.75;;
5912;SDS011;2982;42.684;23.356;2023-07-31T10:00:44;1.63;;;1.52;;
5912;SDS011;2982;42.684;23.356;2023-07-31T10:03:10;3.63;;;2.00;;
5912;SDS011;2982;42.684;23.356;2023-07-31T10:05:42;1.70;;;1.60;;
5912;SDS011;2982;42.684;23.356;2023-07-31T10:08:11;6.80;;;2.30;;
5912;SDS011;2982;42.684;23.356;2023-07-31T10:10:41;2.03;;;1.70;;
5912;SDS011;2982;42.684;23.356;2023-07-31T10:13:07;2.03;;;1.83;;
5912;SDS011;2982;42.684;23.356;2023-07-31T10:15:33;1.73;;;1.60;;
5912;SDS011;2982;42.684;23.356;2023-07-31T10:18:00;4.05;;;2.00;;
5912;SDS011;2982;42.684;23.356;2023-07-31T10:20:26;1.98;;;1.60;;
5912;SDS011;2982;42.684;23.356;2023-07-31T10:22:53;1.83;;;1.70;;
5912;SDS011;2982;42.684;23.356;2023-07-31T10:25:20;2.08;;;1.88;;
5912;SDS011;2982;42.684;23.356;2023-07-31T10:27:47;1.70;;;1.60;;
5912;SDS011;2982;42.684;23.356;2023-07-31T10:30:15;2.95;;;1.50;;
5912;SDS011;2982;42.684;23.356;2023-07-31T10:32:43;4.10;;;1.90;;
5912;SDS011;2982;42.684;23.356;2023-07-31T10:35:10;1.58;;;1.48;;
5912;SDS011;2982;42.684;23.356;2023-07-31T10:37:37;2.20;;;1.50;;
5912;SDS011;2982;42.684;23.356;2023-07-31T10:40:11;3.72;;;1.60;;
5912;SDS011;2982;42.684;23.356;2023-07-31T10:42:51;2.05;;;1.25;;
5912;SDS011;2982;42.684;23.356;2023-07-31T10:48:00;1.90;;;1.60;;
5912;SDS011;2982;42.684;23.356;2023-07-31T10:50:28;1.42;;;1.38;;
5912;SDS011;2982;42.684;23.356;2023-07-31T10:52:55;1.50;;;1.40;;
5912;SDS011;2982;42.684;23.356;2023-07-31T10:55:31;1.23;;;1.23;;
5912;SDS011;2982;42.684;23.356;2023-07-31T10:58:07;1.52;;;1.42;;
5912;SDS011;2982;42.684;23.356;2023-07-31T11:00:36;1.60;;;1.50;;
5912;SDS011;2982;42.684;23.356;2023-07-31T11:03:06;1.35;;;1.25;;
5912;SDS011;2982;42.684;23.356;2023-07-31T11:10:45;1.45;;;1.30;;
5912;SDS011;2982;42.684;23.356;2023-07-31T11:13:12;1.50;;;1.30;;
5912;SDS011;2982;42.684;23.356;2023-07-31T11:15:37;1.92;;;1.27;;
5912;SDS011;2982;42.684;23.356;2023-07-31T11:18:03;1.15;;;1.08;;
5912;SDS011;2982;42.684;23.356;2023-07-31T11:20:32;1.52;;;1.42;;
5912;SDS011;2982;42.684;23.356;2023-07-31T11:22:58;2.65;;;1.50;;
5912;SDS011;2982;42.684;23.356;2023-07-31T11:25:25;1.67;;;1.02;;
5912;SDS011;2982;42.684;23.356;2023-07-31T11:27:50;1.45;;;1.45;;
5912;SDS011;2982;42.684;23.356;2023-07-31T11:30:18;1.67;;;1.58;;
5912;SDS011;2982;42.684;23.356;2023-07-31T11:32:44;1.40;;;1.30;;
5912;SDS011;2982;42.684;23.356;2023-07-31T11:35:12;1.95;;;1.77;;
5912;SDS011;2982;42.684;23.356;2023-07-31T11:37:41;1.83;;;1.10;;
5912;SDS011;2982;42.684;23.356;2023-07-31T11:40:08;3.40;;;1.67;;
5912;SDS011;2982;42.684;23.356;2023-07-31T11:42:36;2.35;;;1.38;;
5912;SDS011;2982;42.684;23.356;2023-07-31T11:45:03;3.85;;;1.45;;
5912;SDS011;2982;42.684;23.356;2023-07-31T11:47:33;1.70;;;1.60;;
5912;SDS011;2982;42.684;23.356;2023-07-31T11:49:58;3.92;;;2.10;;
5912;SDS011;2982;42.684;23.356;2023-07-31T11:52:24;2.30;;;2.15;;
5912;SDS011;2982;42.684;23.356;2023-07-31T11:54:50;1.95;;;1.85;;
5912;SDS011;2982;42.684;23.356;2023-07-31T11:57:15;2.08;;;1.98;;
5912;SDS011;2982;42.684;23.356;2023-07-31T11:59:42;1.88;;;1.77;;
5912;SDS011;2982;42.684;23.356;2023-07-31T12:02:09;3.95;;;2.10;;
5912;SDS011;2982;42.684;23.356;2023-07-31T12:04:34;2.53;;;2.17;;
5912;SDS011;2982;42.684;23.356;2023-07-31T12:07:00;2.90;;;2.08;;
5912;SDS011;2982;42.684;23.356;2023-07-31T12:09:26;1.90;;;1.80;;
5912;SDS011;2982;42.684;23.356;2023-07-31T12:11:51;4.05;;;2.22;;
5912;SDS011;2982;42.684;23.356;2023-07-31T12:14:26;2.45;;;2.25;;
5912;SDS011;2982;42.684;23.356;2023-07-31T12:16:53;2.47;;;2.38;;
5912;SDS011;2982;42.684;23.356;2023-07-31T12:19:22;2.63;;;2.53;;
5912;SDS011;2982;42.684;23.356;2023-07-31T12:21:47;2.47;;;2.38;;
5912;SDS011;2982;42.684;23.356;2023-07-31T12:24:13;3.60;;;3.38;;
5912;SDS011;2982;42.684;23.356;2023-07-31T12:26:38;3.63;;;3.38;;
5912;SDS011;2982;42.684;23.356;2023-07-31T12:29:05;3.97;;;3.78;;
5912;SDS011;2982;42.684;23.356;2023-07-31T12:31:33;3.22;;;3.00;;
5912;SDS011;2982;42.684;23.356;2023-07-31T12:33:59;4.68;;;4.38;;
5912;SDS011;2982;42.684;23.356;2023-07-31T12:36:24;5.88;;;4.50;;
5912;SDS011;2982;42.684;23.356;2023-07-31T12:38:50;4.40;;;3.75;;
5912;SDS011;2982;42.684;23.356;2023-07-31T12:41:16;4.70;;;3.78;;
5912;SDS011;2982;42.684;23.356;2023-07-31T12:43:42;4.35;;;4.00;;
5912;SDS011;2982;42.684;23.356;2023-07-31T12:46:09;4.10;;;3.80;;
5912;SDS011;2982;42.684;23.356;2023-07-31T12:48:34;4.80;;;4.30;;
5912;SDS011;2982;42.684;23.356;2023-07-31T12:51:00;4.05;;;3.78;;
5912;SDS011;2982;42.684;23.356;2023-07-31T12:53:26;4.35;;;4.07;;
5912;SDS011;2982;42.684;23.356;2023-07-31T12:55:52;4.43;;;3.88;;
5912;SDS011;2982;42.684;23.356;2023-07-31T12:58:17;4.57;;;4.18;;
5912;SDS011;2982;42.684;23.356;2023-07-31T13:00:42;4.70;;;4.40;;
5912;SDS011;2982;42.684;23.356;2023-07-31T13:03:08;8.70;;;4.22;;
5912;SDS011;2982;42.684;23.356;2023-07-31T13:05:33;5.95;;;4.70;;
5912;SDS011;2982;42.684;23.356;2023-07-31T13:07:58;5.35;;;4.93;;
5912;SDS011;2982;42.684;23.356;2023-07-31T13:10:24;4.60;;;4.20;;
5912;SDS011;2982;42.684;23.356;2023-07-31T13:12:49;5.30;;;5.00;;
5912;SDS011;2982;42.684;23.356;2023-07-31T13:15:15;6.25;;;5.25;;
5912;SDS011;2982;42.684;23.356;2023-07-31T13:17:40;5.22;;;4.75;;
5912;SDS011;2982;42.684;23.356;2023-07-31T13:20:06;4.60;;;4.40;;
5912;SDS011;2982;42.684;23.356;2023-07-31T13:22:31;4.47;;;4.20;;
5912;SDS011;2982;42.684;23.356;2023-07-31T13:24:57;4.65;;;4.25;;
5912;SDS011;2982;42.684;23.356;2023-07-31T13:27:22;4.45;;;4.10;;
5912;SDS011;2982;42.684;23.356;2023-07-31T13:29:51;4.57;;;4.03;;
5912;SDS011;2982;42.684;23.356;2023-07-31T13:32:17;4.53;;;4.32;;
5912;SDS011;2982;42.684;23.356;2023-07-31T13:34:43;6.07;;;4.13;;
5912;SDS011;2982;42.684;23.356;2023-07-31T13:37:08;4.50;;;4.30;;
5912;SDS011;2982;42.684;23.356;2023-07-31T13:39:34;4.28;;;4.07;;
5912;SDS011;2982;42.684;23.356;2023-07-31T13:41:59;4.93;;;4.03;;
5912;SDS011;2982;42.684;23.356;2023-07-31T13:44:25;3.85;;;3.55;;
5912;SDS011;2982;42.684;23.356;2023-07-31T13:46:51;3.28;;;3.17;;
5912;SDS011;2982;42.684;23.356;2023-07-31T13:49:16;4.05;;;3.85;;
5912;SDS011;2982;42.684;23.356;2023-07-31T13:51:41;3.92;;;3.72;;
5912;SDS011;2982;42.684;23.356;2023-07-31T13:54:07;4.10;;;3.70;;
5912;SDS011;2982;42.684;23.356;2023-07-31T13:56:32;4.00;;;3.70;;
5912;SDS011;2982;42.684;23.356;2023-07-31T13:58:57;3.65;;;3.50;;
5912;SDS011;2982;42.684;23.356;2023-07-31T14:01:23;3.38;;;3.20;;
5912;SDS011;2982;42.684;23.356;2023-07-31T14:03:48;3.70;;;3.50;;
5912;SDS011;2982;42.684;23.356;2023-07-31T14:06:13;3.13;;;2.92;;
5912;SDS011;2982;42.684;23.356;2023-07-31T14:08:38;3.50;;;3.30;;
5912;SDS011;2982;42.684;23.356;2023-07-31T14:11:04;3.67;;;3.47;;
5912;SDS011;2982;42.684;23.356;2023-07-31T14:13:29;4.53;;;3.05;;
5912;SDS011;2982;42.684;23.356;2023-07-31T14:15:54;9.70;;;3.10;;
5912;SDS011;2982;42.684;23.356;2023-07-31T14:18:20;3.25;;;3.15;;
5912;SDS011;2982;42.684;23.356;2023-07-31T14:20:45;2.90;;;2.80;;
5912;SDS011;2982;42.684;23.356;2023-07-31T14:23:10;3.60;;;3.40;;
5912;SDS011;2982;42.684;23.356;2023-07-31T14:25:35;4.60;;;3.85;;
5912;SDS011;2982;42.684;23.356;2023-07-31T14:28:01;3.80;;;3.60;;
5912;SDS011;2982;42.684;23.356;2023-07-31T14:30:26;3.67;;;3.40;;
5912;SDS011;2982;42.684;23.356;2023-07-31T14:32:51;3.58;;;3.30;;
5912;SDS011;2982;42.684;23.356;2023-07-31T14:35:17;2.85;;;2.65;;
5912;SDS011;2982;42.684;23.356;2023-07-31T14:37:43;3.50;;;3.20;;
5912;SDS011;2982;42.684;23.356;2023-07-31T14:40:10;3.60;;;3.40;;
5912;SDS011;2982;42.684;23.356;2023-07-31T14:42:37;3.17;;;2.95;;
5912;SDS011;2982;42.684;23.356;2023-07-31T14:45:04;3.55;;;3.25;;
5912;SDS011;2982;42.684;23.356;2023-07-31T14:47:30;3.20;;;3.00;;
5912;SDS011;2982;42.684;23.356;2023-07-31T14:49:55;3.35;;;3.13;;
5912;SDS011;2982;42.684;23.356;2023-07-31T14:52:20;2.67;;;2.58;;
5912;SDS011;2982;42.684;23.356;2023-07-31T14:54:45;3.28;;;2.97;;
5912;SDS011;2982;42.684;23.356;2023-07-31T14:57:11;2.92;;;2.72;;
5912;SDS011;2982;42.684;23.356;2023-07-31T14:59:36;3.17;;;2.97;;